Time;durP1;ratioP1;P1;durP2;ratioP2;P2;SDS_P1;SDS_P2;PMS_P1;PMS_P2;Temp;Humidity;BMP_temperature;BMP_pressure;BME280_temperature;BME280_humidity;BME280_pressure;Samples;Min_cycle;Max_cycle;Signal;HPM_P1;HPM_P2
2022/06/28 00:00:29;;;;;;;7.03;5.00;;;;;;;23.73;100.00;101486.69;2097290;28;20206;-68
2022/06/28 00:01:30;;;;;;;6.73;5.20;;;;;;;23.49;100.00;101464.34;2099408;28;20316;-68
2022/06/28 00:02:30;;;;;;;9.67;4.90;;;;;;;23.64;100.00;101481.22;2099618;28;20179;-67
2022/06/28 00:03:31;;;;;;;5.97;4.70;;;;;;;22.92;100.00;101372.31;2096968;28;20267;-68
2022/06/28 00:04:31;;;;;;;8.07;5.00;;;;;;;23.42;100.00;101447.84;2096449;28;20233;-68
2022/06/28 00:05:32;;;;;;;6.60;4.70;;;;;;;23.66;100.00;101473.78;2094966;28;20234;-68
2022/06/28 00:06:34;;;;;;;6.23;5.03;;;;;;;23.59;100.00;101479.88;2089857;28;20330;-68
2022/06/28 00:07:34;;;;;;;7.73;4.97;;;;;;;23.63;100.00;101480.44;2094643;28;20679;-68
2022/06/28 00:08:35;;;;;;;8.37;5.00;;;;;;;23.43;100.00;101460.72;2096828;28;20577;-68
2022/06/28 00:09:35;;;;;;;8.67;4.97;;;;;;;23.35;100.00;101470.16;2094272;28;20224;-68
2022/06/28 00:10:36;;;;;;;6.43;5.07;;;;;;;23.47;100.00;101500.09;2096638;28;20206;-68
2022/06/28 00:11:36;;;;;;;7.53;5.30;;;;;;;23.12;100.00;101445.72;2097118;28;20187;-68
2022/06/28 00:12:38;;;;;;;12.00;5.77;;;;;;;23.54;100.00;101491.16;2096100;28;20689;-68
2022/06/28 00:13:38;;;;;;;6.50;4.87;;;;;;;23.45;100.00;101486.47;2096924;28;20707;-68
2022/06/28 00:16:07;;;;;;;6.60;5.20;;;;;;;22.82;100.00;101402.78;2092888;28;20176;-68
2022/06/28 00:17:07;;;;;;;7.40;4.77;;;;;;;23.43;100.00;101491.84;2088690;28;20256;-68
2022/06/28 00:18:08;;;;;;;9.00;5.43;;;;;;;23.41;100.00;101491.56;2096695;28;20191;-68
2022/06/28 00:19:08;;;;;;;8.03;4.80;;;;;;;23.41;100.00;101491.56;2097031;28;20661;-67
2022/06/28 00:20:10;;;;;;;7.80;4.73;;;;;;;23.18;100.00;101460.75;2096972;28;20195;-68
2022/06/28 00:21:11;;;;;;;8.80;5.33;;;;;;;23.39;100.00;101496.94;2096575;28;20241;-68
2022/06/28 00:22:11;;;;;;;9.90;5.53;;;;;;;23.49;100.00;101497.56;2096436;28;20240;-69
2022/06/28 00:23:12;;;;;;;8.23;5.03;;;;;;;23.34;100.00;101474.28;2094514;28;20176;-68
2022/06/28 00:24:13;;;;;;;8.27;5.10;;;;;;;23.31;100.00;101472.44;2089769;28;20183;-68
2022/06/28 00:25:13;;;;;;;7.77;4.93;;;;;;;23.44;100.00;101501.88;2096810;28;20202;-68
2022/06/28 00:26:14;;;;;;;11.13;5.10;;;;;;;23.43;100.00;101500.31;2088747;28;20192;-68
2022/06/28 00:27:15;;;;;;;9.03;5.33;;;;;;;23.44;100.00;101504.69;2087004;28;20227;-68
2022/06/28 00:28:15;;;;;;;9.50;5.80;;;;;;;23.40;100.00;101489.22;2089675;28;20184;-68
2022/06/28 00:29:16;;;;;;;6.77;4.73;;;;;;;23.39;100.00;101499.75;2096978;28;20328;-68
2022/06/28 00:30:17;;;;;;;7.37;5.03;;;;;;;23.39;100.00;101496.94;2096924;28;20188;-68
2022/06/28 00:31:17;;;;;;;8.80;5.33;;;;;;;23.40;100.00;101497.72;2096808;28;20204;-68
2022/06/28 00:32:17;;;;;;;12.13;5.73;;;;;;;23.39;100.00;101494.09;2096753;28;20171;-68
2022/06/28 00:33:18;;;;;;;10.97;5.33;;;;;;;22.69;100.00;101401.59;2096700;28;20795;-68
2022/06/28 00:34:19;;;;;;;6.97;4.93;;;;;;;23.04;100.00;101461.59;2105342;28;20545;-68
2022/06/28 00:35:19;;;;;;;10.07;5.37;;;;;;;23.29;100.00;101486.31;2096522;28;20215;-68
2022/06/28 00:36:20;;;;;;;6.37;5.07;;;;;;;23.00;100.00;101438.41;2096303;28;20195;-68
2022/06/28 00:37:20;;;;;;;8.47;4.87;;;;;;;23.23;100.00;101474.16;2096166;28;20196;-68
2022/06/28 00:38:21;;;;;;;7.57;5.10;;;;;;;23.29;100.00;101483.47;2096601;28;20193;-68
2022/06/28 00:39:21;;;;;;;8.13;5.23;;;;;;;23.22;100.00;101486.72;2093231;28;20192;-67
2022/06/28 00:40:23;;;;;;;9.30;5.37;;;;;;;22.96;100.00;101444.31;2089636;28;20180;-69
2022/06/28 00:41:25;;;;;;;8.27;5.37;;;;;;;22.94;100.00;101421.41;2095818;28;20175;-68
2022/06/28 00:42:25;;;;;;;7.83;4.77;;;;;;;23.31;100.00;101503.53;2088990;28;20176;-68
2022/06/28 00:43:27;;;;;;;8.33;4.40;;;;;;;23.34;100.00;101482.75;2097112;28;20191;-68
2022/06/28 00:44:28;;;;;;;8.93;5.00;;;;;;;22.89;100.00;101418.53;2103114;28;20225;-68
2022/06/28 00:45:29;;;;;;;7.30;4.60;;;;;;;23.13;100.00;101450.88;2099839;28;20195;-68
2022/06/28 00:46:33;;;;;;;5.93;5.00;;;;;;;23.36;100.00;101469.66;2099768;28;20234;-68
2022/06/28 00:47:34;;;;;;;8.80;4.63;;;;;;;23.37;100.00;101474.03;2095659;28;20190;-69
2022/06/28 00:48:35;;;;;;;7.13;4.57;;;;;;;22.83;100.00;101395.84;2093761;28;20196;-68
2022/06/28 00:49:40;;;;;;;6.57;4.60;;;;;;;23.33;100.00;101467.81;2088490;28;20624;-68
2022/06/28 00:50:41;;;;;;;6.17;4.70;;;;;;;23.32;100.00;101466.28;2090921;28;20172;-68
2022/06/28 00:51:41;;;;;;;7.83;4.87;;;;;;;23.26;100.00;101468.28;2104579;28;20171;-68
2022/06/28 00:53:03;;;;;;;8.17;5.00;;;;;;;23.16;100.00;101443.47;2096579;28;20195;-68
2022/06/28 00:54:03;;;;;;;8.07;4.33;;;;;;;23.04;100.00;101427.66;2096379;28;20656;-68
2022/06/28 00:55:04;;;;;;;6.10;4.50;;;;;;;22.94;100.00;101418.59;2097062;28;20600;-68
2022/06/28 00:56:05;;;;;;;6.83;4.73;;;;;;;22.83;100.00;101409.97;2096934;28;20645;-68
2022/06/28 00:57:06;;;;;;;7.57;4.70;;;;;;;22.86;100.00;101416.69;2096002;28;20248;-68
2022/06/28 00:58:08;;;;;;;11.23;4.50;;;;;;;22.67;100.00;101385.16;2090766;28;20191;-68
2022/06/28 00:59:08;;;;;;;7.10;4.60;;;;;;;22.83;100.00;101397.91;2093278;28;20662;-68
2022/06/28 01:00:10;;;;;;;5.43;4.23;;;;;;;23.26;100.00;101462.63;2096535;28;20195;-68
2022/06/28 01:01:10;;;;;;;7.70;4.63;;;;;;;22.99;100.00;101431.22;2096629;28;20574;-68
2022/06/28 01:02:11;;;;;;;6.40;4.23;;;;;;;23.23;100.00;101468.50;2096488;28;20167;-68
2022/06/28 01:03:18;;;;;;;4.77;4.27;;;;;;;23.17;100.00;101456.31;2096226;28;20172;-68
2022/06/28 01:04:18;;;;;;;8.83;4.73;;;;;;;23.17;100.00;101457.09;2088230;28;20167;-68
2022/06/28 01:05:19;;;;;;;8.73;4.60;;;;;;;23.17;100.00;101462.75;2097000;28;20184;-68
2022/06/28 01:06:20;;;;;;;5.43;4.50;;;;;;;22.65;100.00;101418.00;2096797;28;20196;-69
2022/06/28 01:07:21;;;;;;;6.73;4.30;;;;;;;22.39;100.00;101371.97;2096113;28;20191;-68
2022/06/28 01:08:21;;;;;;;7.90;4.43;;;;;;;22.64;100.00;101408.75;2096188;28;20197;-68
2022/06/28 01:09:22;;;;;;;5.47;4.60;;;;;;;22.61;100.00;101412.56;2096352;28;20241;-68
2022/06/28 01:10:25;;;;;;;5.40;4.90;;;;;;;22.59;100.00;101425.63;2091391;28;20576;-68
2022/06/28 01:11:28;;;;;;;5.37;4.87;;;;;;;22.92;100.00;101479.72;2096675;28;20183;-69
2022/06/28 01:12:28;;;;;;;8.97;5.10;;;;;;;22.91;100.00;101478.94;2096463;28;20602;-68
2022/06/28 01:13:29;;;;;;;5.03;4.63;;;;;;;22.31;100.00;101396.25;2096662;28;20200;-68
2022/06/28 01:14:29;;;;;;;6.03;5.27;;;;;;;22.33;100.00;101413.47;2096061;28;20222;-68
2022/06/28 01:15:31;;;;;;;9.90;5.10;;;;;;;22.83;100.00;101479.88;2096904;28;20199;-68
2022/06/28 01:16:31;;;;;;;8.00;4.80;;;;;;;22.83;100.00;101479.88;2096594;28;20255;-68
2022/06/28 01:17:32;;;;;;;6.63;5.03;;;;;;;22.81;100.00;101476.75;2095228;28;20256;-67
2022/06/28 01:18:33;;;;;;;6.47;5.10;;;;;;;22.83;100.00;101474.22;2096074;28;20191;-68
2022/06/28 01:19:33;;;;;;;6.10;4.80;;;;;;;22.81;100.00;101483.19;2090680;28;20620;-69
2022/06/28 01:20:34;;;;;;;7.03;4.70;;;;;;;22.73;100.00;101476.41;2096420;28;20218;-68
2022/06/28 01:21:36;;;;;;;6.23;4.90;;;;;;;22.74;100.00;101492.09;2100584;28;20245;-68
2022/06/28 01:22:41;;;;;;;6.77;4.93;;;;;;;22.77;100.00;101488.28;2096978;28;20231;-68
2022/06/28 01:23:44;;;;;;;5.50;4.50;;;;;;;22.74;100.00;101499.78;2095865;28;20226;-68
2022/06/28 01:24:45;;;;;;;8.73;5.43;;;;;;;22.74;100.00;101494.94;2095671;28;20180;-68
2022/06/28 01:25:45;;;;;;;9.80;6.20;;;;;;;22.80;100.00;101504.25;2094694;28;20192;-68
2022/06/28 01:26:46;;;;;;;6.93;5.37;;;;;;;22.72;100.00;101496.69;2096631;28;20321;-68
2022/06/28 01:27:47;;;;;;;7.17;5.33;;;;;;;22.76;100.00;101503.69;2099438;28;20210;-68
2022/06/28 01:28:49;;;;;;;8.83;5.87;;;;;;;22.77;100.00;101499.56;2101188;28;20746;-68
2022/06/28 01:29:50;;;;;;;6.50;5.10;;;;;;;22.81;100.00;101500.16;2090426;28;20812;-69
2022/06/28 01:30:51;;;;;;;8.20;5.40;;;;;;;22.86;100.00;101502.25;2096153;28;20222;-68
2022/06/28 01:31:52;;;;;;;7.60;5.37;;;;;;;22.89;100.00;101504.09;2097287;28;20176;-68
2022/06/28 01:32:52;;;;;;;7.03;5.33;;;;;;;22.41;100.00;101428.75;2096429;28;20734;-68
2022/06/28 01:33:53;;;;;;;8.27;5.53;;;;;;;22.91;100.00;101506.41;2096569;28;20207;-68
2022/06/28 01:34:54;;;;;;;6.27;5.37;;;;;;;22.92;100.00;101502.34;2101584;28;20275;-68
2022/06/28 01:35:54;;;;;;;10.13;5.90;;;;;;;22.89;100.00;101517.44;2100344;28;20192;-68
2022/06/28 01:36:55;;;;;;;15.07;6.47;;;;;;;22.61;100.00;101505.03;2096571;28;20192;-69
2022/06/28 01:37:57;;;;;;;10.47;5.80;;;;;;;22.84;100.00;101515.31;2095883;28;20598;-68
2022/06/28 01:38:57;;;;;;;10.77;5.17;;;;;;;22.03;100.00;101384.63;2098141;28;20176;-68
2022/06/28 01:39:58;;;;;;;11.03;5.57;;;;;;;22.07;100.00;101367.47;2098133;28;20172;-68
2022/06/28 01:40:59;;;;;;;12.77;5.83;;;;;;;22.95;100.00;101502.13;2098461;28;20258;-68
2022/06/28 01:41:59;;;;;;;11.43;5.57;;;;;;;22.95;100.00;101487.19;2098199;28;20637;-68
2022/06/28 01:43:00;;;;;;;5.60;4.53;;;;;;;22.59;100.00;101436.94;2098065;28;20622;-68
2022/06/28 01:44:04;;;;;;;7.27;4.30;;;;;;;22.73;100.00;101455.84;2098211;28;20202;-68
2022/06/28 01:45:05;;;;;;;7.63;4.40;;;;;;;22.23;100.00;101397.94;2097830;28;20202;-68
2022/06/28 01:46:06;;;;;;;5.87;4.53;;;;;;;22.78;100.00;101484.16;2100932;28;20207;-68
2022/06/28 01:47:10;;;;;;;5.97;4.93;;;;;;;22.41;100.00;101456.97;2097533;28;20203;-68
2022/06/28 01:48:11;;;;;;;7.93;5.23;;;;;;;22.56;100.00;101486.72;2098148;28;20168;-68
2022/06/28 01:49:11;;;;;;;7.40;5.43;;;;;;;22.30;100.00;101451.94;2098122;28;20420;-68
2022/06/28 01:50:12;;;;;;;8.97;5.50;;;;;;;22.64;100.00;101507.66;2098464;28;20168;-68
2022/06/28 01:51:12;;;;;;;7.67;6.10;;;;;;;22.49;100.00;101478.69;2089642;28;20693;-68
2022/06/28 01:52:13;;;;;;;8.47;5.63;;;;;;;22.59;100.00;101494.22;2095661;28;20703;-67
2022/06/28 01:53:14;;;;;;;6.73;5.73;;;;;;;22.59;100.00;101497.06;2095063;28;20283;-68
2022/06/28 01:54:16;;;;;;;7.33;5.60;;;;;;;22.57;100.00;101504.47;2094162;28;20208;-68
2022/06/28 01:55:17;;;;;;;11.53;7.67;;;;;;;22.20;100.00;101447.72;2092416;28;20582;-68
2022/06/28 01:56:18;;;;;;;10.67;7.50;;;;;;;22.60;100.00;101507.06;2098199;28;20195;-68
2022/06/28 01:57:18;;;;;;;7.93;6.17;;;;;;;22.43;100.00;101497.59;2096432;28;20198;-67
2022/06/28 01:58:18;;;;;;;7.10;5.53;;;;;;;22.46;100.00;101522.03;2106065;28;20194;-68
2022/06/28 01:59:19;;;;;;;9.70;7.47;;;;;;;22.38;100.00;101503.94;2098306;28;20184;-68
2022/06/28 02:00:20;;;;;;;10.50;7.30;;;;;;;21.43;100.00;101361.13;2098044;28;20195;-69
2022/06/28 02:01:20;;;;;;;8.40;6.57;;;;;;;22.51;100.00;101507.22;2092045;28;20648;-68
2022/06/28 02:02:20;;;;;;;13.40;7.90;;;;;;;22.46;100.00;101488.13;2089666;28;20204;-68
2022/06/28 02:03:21;;;;;;;13.70;7.50;;;;;;;21.76;100.00;101387.84;2093100;28;20190;-67
2022/06/28 02:04:26;;;;;;;10.10;6.43;;;;;;;22.48;100.00;101502.56;2096903;28;20187;-68
2022/06/28 02:05:28;;;;;;;8.07;6.27;;;;;;;22.42;100.00;101500.91;2097430;28;20219;-68
2022/06/28 02:06:28;;;;;;;10.27;5.73;;;;;;;22.49;100.00;101494.84;2097703;28;20653;-68
2022/06/28 02:07:29;;;;;;;22.50;7.63;;;;;;;22.38;100.00;101472.09;2097177;28;20833;-68
2022/06/28 02:08:29;;;;;;;19.67;7.50;;;;;;;22.51;100.00;101486.69;2089540;28;20192;-68
2022/06/28 02:09:30;;;;;;;12.23;6.73;;;;;;;22.54;100.00;101494.13;2097170;28;20838;-68
2022/06/28 02:10:30;;;;;;;8.87;6.13;;;;;;;22.51;100.00;101492.31;2095222;28;20219;-68
2022/06/28 02:11:31;;;;;;;8.70;6.60;;;;;;;22.43;100.00;101480.63;2093810;28;20261;-68
2022/06/28 02:12:31;;;;;;;11.37;6.03;;;;;;;22.47;100.00;101481.22;2097567;28;20278;-68
2022/06/28 02:13:32;;;;;;;8.87;5.80;;;;;;;22.55;100.00;101490.03;2096137;28;20184;-68
2022/06/28 02:14:32;;;;;;;6.53;5.87;;;;;;;21.88;100.00;101383.91;2090085;28;20650;-68
2022/06/28 02:15:33;;;;;;;6.67;5.50;;;;;;;22.56;100.00;101489.56;2098454;28;20196;-68
2022/06/28 02:16:34;;;;;;;8.37;6.00;;;;;;;22.34;100.00;101468.69;2096959;28;20223;-68
2022/06/28 02:17:34;;;;;;;7.77;5.53;;;;;;;21.71;100.00;101368.00;2096542;28;20264;-68
2022/06/28 02:18:35;;;;;;;7.83;5.73;;;;;;;21.48;100.00;101335.03;2091328;28;20207;-68
2022/06/28 02:19:36;;;;;;;8.40;5.90;;;;;;;22.51;100.00;101495.16;2089436;28;20207;-68
2022/06/28 02:20:36;;;;;;;5.83;5.27;;;;;;;22.49;100.00;101500.50;2090637;28;20242;-69
2022/06/28 02:21:39;;;;;;;8.27;5.63;;;;;;;22.48;100.00;101501.78;2097146;28;20499;-68
2022/06/28 02:22:40;;;;;;;7.83;5.40;;;;;;;22.44;100.00;101501.97;2097514;28;20231;-68
2022/06/28 02:23:40;;;;;;;7.73;5.60;;;;;;;22.50;100.00;101502.03;2096331;28;20768;-68
2022/06/28 02:24:41;;;;;;;8.50;5.93;;;;;;;22.44;100.00;101509.63;2096228;28;20223;-68
2022/06/28 02:25:41;;;;;;;7.77;5.37;;;;;;;22.41;100.00;101505.00;2092764;28;20283;-68
2022/06/28 02:26:42;;;;;;;10.17;5.50;;;;;;;22.41;100.00;101502.16;2091223;28;20651;-69
2022/06/28 02:27:43;;;;;;;7.37;5.40;;;;;;;22.15;100.00;101471.00;2095813;28;20258;-68
2022/06/28 02:28:43;;;;;;;7.87;5.37;;;;;;;22.32;100.00;101503.06;2089961;28;20299;-68
2022/06/28 02:29:44;;;;;;;7.57;5.40;;;;;;;22.32;100.00;101491.75;2096157;28;20434;-68
2022/06/28 02:30:45;;;;;;;6.37;5.43;;;;;;;22.31;100.00;101500.75;2097098;28;20195;-68
2022/06/28 02:31:45;;;;;;;6.73;5.57;;;;;;;22.34;100.00;101494.09;2097091;28;20196;-68
2022/06/28 02:32:45;;;;;;;7.83;5.20;;;;;;;21.77;100.00;101406.31;2097126;28;20179;-68
2022/06/28 02:33:46;;;;;;;8.37;5.40;;;;;;;22.28;100.00;101496.06;2097439;28;20203;-68
2022/06/28 02:40:21;;;;;;;8.90;5.70;;;;;;;21.80;100.00;101447.63;2094852;28;20430;-68
2022/06/28 02:41:22;;;;;;;6.83;5.70;;;;;;;22.11;100.00;101512.00;2092281;28;20425;-68
2022/06/28 02:42:22;;;;;;;8.00;5.47;;;;;;;21.89;100.00;101474.94;2096917;28;20516;-68
2022/06/28 02:43:23;;;;;;;5.70;5.03;;;;;;;21.49;100.00;101421.22;2097603;28;20296;-67
2022/06/28 02:44:23;;;;;;;6.43;5.33;;;;;;;21.98;100.00;101506.69;2088024;28;20208;-68
2022/06/28 02:45:26;;;;;;;7.53;5.37;;;;;;;21.93;100.00;101500.94;2096242;28;20196;-68
2022/06/28 02:46:27;;;;;;;11.13;5.90;;;;;;;21.37;100.00;101420.25;2094979;28;20192;-68
2022/06/28 02:47:27;;;;;;;13.83;6.30;;;;;;;21.79;100.00;101496.88;2091959;28;20481;-68
2022/06/28 02:48:28;;;;;;;24.20;7.30;;;;;;;21.78;100.00;101498.16;2095821;28;20206;-68
2022/06/28 02:49:28;;;;;;;23.77;7.23;;;;;;;21.82;100.00;101500.75;2089603;28;20569;-68
2022/06/28 02:50:29;;;;;;;17.67;6.50;;;;;;;21.77;100.00;101505.06;2088751;28;20275;-67
2022/06/28 02:51:30;;;;;;;12.33;6.40;;;;;;;21.40;100.00;101447.47;2094967;28;20188;-68
2022/06/28 02:52:30;;;;;;;9.57;5.40;;;;;;;21.76;100.00;101499.91;2096827;28;20188;-68
2022/06/28 02:53:31;;;;;;;15.10;6.13;;;;;;;21.71;100.00;101512.66;2100565;28;20228;-68
2022/06/28 02:54:31;;;;;;;11.53;5.77;;;;;;;21.73;100.00;101515.75;2104953;28;20212;-68
2022/06/28 02:55:32;;;;;;;10.83;5.37;;;;;;;21.66;100.00;101510.50;2106600;28;20201;-68
2022/06/28 02:56:33;;;;;;;10.97;5.80;;;;;;;21.66;100.00;101518.97;2098001;28;20188;-68
2022/06/28 02:57:35;;;;;;;8.20;5.80;;;;;;;21.21;100.00;101448.16;2096907;28;20678;-68
2022/06/28 02:58:35;;;;;;;11.10;5.70;;;;;;;21.61;100.00;101514.00;2092079;28;20616;-68
2022/06/28 02:59:36;;;;;;;8.10;5.80;;;;;;;21.32;100.00;101485.00;2089523;28;20474;-67
2022/06/28 03:00:36;;;;;;;8.83;5.50;;;;;;;21.31;100.00;101480.63;2092440;28;20234;-69
2022/06/28 03:01:37;;;;;;;9.33;5.37;;;;;;;21.32;100.00;101488.59;2097270;28;20182;-68
2022/06/28 03:02:39;;;;;;;9.43;5.50;;;;;;;21.56;100.00;101525.97;2096674;28;20236;-68
2022/06/28 03:03:40;;;;;;;12.10;5.80;;;;;;;21.00;100.00;101438.03;2089511;28;20187;-68
2022/06/28 03:04:40;;;;;;;9.07;5.87;;;;;;;21.09;100.00;101437.97;2089566;28;20610;-68
2022/06/28 03:05:41;;;;;;;8.20;5.43;;;;;;;21.47;100.00;101497.84;2089416;28;20525;-68
2022/06/28 03:06:41;;;;;;;7.47;5.33;;;;;;;21.60;100.00;101509.59;2089121;28;20287;-68
2022/06/28 03:07:43;;;;;;;9.60;5.60;;;;;;;21.66;100.00;101521.00;2088502;28;20563;-68
2022/06/28 03:08:43;;;;;;;7.23;5.80;;;;;;;21.74;100.00;101522.19;2089383;28;20202;-69
2022/06/28 03:09:43;;;;;;;6.80;5.23;;;;;;;21.68;100.00;101519.28;2092365;28;20545;-68
2022/06/28 03:10:44;;;;;;;6.40;5.30;;;;;;;21.65;100.00;101520.19;2097316;28;20254;-68
2022/06/28 03:11:44;;;;;;;7.37;5.23;;;;;;;21.42;100.00;101484.44;2097293;28;20703;-68
2022/06/28 03:12:45;;;;;;;5.23;4.73;;;;;;;20.99;100.00;101425.97;2097903;28;20187;-68
2022/06/28 03:13:46;;;;;;;7.27;5.27;;;;;;;21.55;100.00;101506.69;2097328;28;20192;-68
2022/06/28 03:14:46;;;;;;;6.00;5.10;;;;;;;21.64;100.00;101527.09;2096086;28;20455;-68
2022/06/28 03:15:47;;;;;;;7.57;5.37;;;;;;;21.63;100.00;101531.19;2090793;28;20227;-68
2022/06/28 03:16:48;;;;;;;6.20;5.03;;;;;;;21.45;100.00;101524.97;2096782;28;20209;-69
2022/06/28 03:17:48;;;;;;;7.17;4.87;;;;;;;21.65;100.00;101533.53;2096746;28;20653;-68
2022/06/28 03:18:49;;;;;;;5.63;4.73;;;;;;;21.19;100.00;101468.38;2095634;28;20261;-69
2022/06/28 03:19:49;;;;;;;5.67;4.70;;;;;;;21.46;100.00;101512.44;2089681;28;20206;-68
2022/06/28 03:20:50;;;;;;;7.03;4.90;;;;;;;21.17;100.00;101479.38;2097407;28;20267;-68
2022/06/28 03:21:51;;;;;;;7.37;4.80;;;;;;;21.56;100.00;101528.78;2093168;28;20218;-68
2022/06/28 03:22:51;;;;;;;6.27;5.23;;;;;;;21.66;100.00;101543.56;2089787;28;20243;-68
2022/06/28 03:23:52;;;;;;;8.23;6.00;;;;;;;21.65;100.00;101536.38;2094231;28;20282;-68
2022/06/28 03:24:52;;;;;;;6.60;5.87;;;;;;;21.07;100.00;101468.66;2097046;28;20332;-68
2022/06/28 03:25:53;;;;;;;7.40;6.23;;;;;;;21.57;100.00;101540.81;2093998;28;20270;-68
2022/06/28 03:26:53;;;;;;;6.30;5.70;;;;;;;21.61;100.00;101547.06;2089153;28;20735;-67
2022/06/28 03:27:54;;;;;;;7.13;6.50;;;;;;;21.35;100.00;101503.78;2089274;28;20270;-67
2022/06/28 03:28:54;;;;;;;7.20;6.50;;;;;;;21.67;100.00;101540.25;2097756;28;20272;-68
2022/06/28 03:29:55;;;;;;;7.40;6.33;;;;;;;21.63;100.00;101542.47;2089428;28;20251;-68
2022/06/28 03:30:55;;;;;;;8.27;5.80;;;;;;;21.67;100.00;101545.09;2095855;28;20283;-68
2022/06/28 03:31:56;;;;;;;8.03;5.97;;;;;;;21.65;100.00;101547.66;2096772;28;20198;-68
2022/06/28 03:32:56;;;;;;;9.30;5.90;;;;;;;21.04;100.00;101449.91;2096580;28;20226;-68
2022/06/28 03:33:57;;;;;;;8.43;6.20;;;;;;;21.70;100.00;101541.34;2097226;28;20202;-68
2022/06/28 03:34:58;;;;;;;7.73;6.40;;;;;;;21.18;100.00;101457.59;2094402;28;20213;-68
2022/06/28 03:35:58;;;;;;;8.33;6.67;;;;;;;21.73;100.00;101535.50;2090178;28;20211;-67
2022/06/28 03:36:59;;;;;;;8.07;6.50;;;;;;;21.24;100.00;101456.41;2097024;28;20706;-68
2022/06/28 03:37:59;;;;;;;6.90;6.10;;;;;;;21.82;100.00;101534.63;2089316;28;20662;-68
2022/06/28 03:39:00;;;;;;;9.53;5.93;;;;;;;21.82;100.00;101540.25;2095551;28;20205;-68
2022/06/28 03:40:00;;;;;;;7.23;6.53;;;;;;;21.30;100.00;101462.94;2096537;28;20203;-68
2022/06/28 03:41:01;;;;;;;8.70;6.10;;;;;;;21.86;100.00;101544.44;2091622;28;20200;-68
2022/06/28 03:42:02;;;;;;;8.23;7.20;;;;;;;21.86;100.00;101543.69;2092683;28;20224;-68
2022/06/28 03:43:03;;;;;;;8.53;6.97;;;;;;;21.81;100.00;101539.47;2097001;28;20621;-67
2022/06/28 03:44:03;;;;;;;9.27;6.80;;;;;;;21.76;100.00;101547.88;2097116;28;20506;-68
2022/06/28 03:45:05;;;;;;;12.43;7.10;;;;;;;21.74;100.00;101547.59;2096676;28;20171;-67
2022/06/28 03:46:05;;;;;;;10.30;7.67;;;;;;;21.74;100.00;101551.16;2103768;28;20214;-67
2022/06/28 03:47:06;;;;;;;9.07;7.00;;;;;;;21.55;100.00;101554.66;2097199;28;21069;-68
2022/06/28 03:48:06;;;;;;;7.53;6.87;;;;;;;21.18;100.00;101511.16;2096692;28;20194;-67
2022/06/28 03:49:07;;;;;;;8.03;6.73;;;;;;;21.50;100.00;101563.78;2096247;28;20661;-67
2022/06/28 03:50:08;;;;;;;9.13;7.40;;;;;;;21.47;100.00;101559.09;2096702;28;20184;-67
2022/06/28 03:51:08;;;;;;;7.93;7.17;;;;;;;21.39;100.00;101558.69;2094402;28;20275;-68
2022/06/28 03:52:09;;;;;;;9.37;7.50;;;;;;;21.14;100.00;101542.34;2101591;28;20171;-67
2022/06/28 03:53:10;;;;;;;12.63;7.97;;;;;;;21.45;100.00;101567.28;2090027;28;20564;-68
2022/06/28 03:54:10;;;;;;;9.83;7.47;;;;;;;20.75;100.00;101459.06;2097050;28;20744;-68
2022/06/28 03:55:11;;;;;;;12.20;7.53;;;;;;;21.50;100.00;101575.06;2096110;28;20297;-68
2022/06/28 03:56:12;;;;;;;9.37;7.43;;;;;;;21.18;100.00;101505.53;2090418;28;20572;-67
2022/06/28 03:57:13;;;;;;;8.73;7.27;;;;;;;21.62;100.00;101571.97;2093544;28;20431;-68
2022/06/28 03:58:13;;;;;;;12.67;7.40;;;;;;;21.64;100.00;101571.50;2091566;28;20650;-68
2022/06/28 03:59:13;;;;;;;10.23;8.20;;;;;;;21.70;100.00;101572.38;2090189;28;20191;-67
2022/06/28 04:00:14;;;;;;;14.40;7.97;;;;;;;21.72;100.00;101575.50;2095590;28;20190;-68
2022/06/28 04:01:15;;;;;;;11.70;8.50;;;;;;;21.21;100.00;101490.44;2094506;28;20574;-67
2022/06/28 04:02:15;;;;;;;10.63;7.57;;;;;;;21.79;100.00;101573.06;2088331;28;20507;-68
2022/06/28 04:03:16;;;;;;;9.17;7.00;;;;;;;21.75;100.00;101557.59;2089257;28;20559;-67
2022/06/28 04:04:17;;;;;;;12.17;7.37;;;;;;;21.84;100.00;101577.22;2095362;28;20252;-67
2022/06/28 04:05:17;;;;;;;13.17;7.73;;;;;;;21.30;100.00;101484.72;2092562;28;20206;-69
2022/06/28 04:06:18;;;;;;;10.53;7.17;;;;;;;21.96;100.00;101573.34;2093245;28;20206;-67
2022/06/28 04:07:18;;;;;;;9.10;7.23;;;;;;;21.92;100.00;101553.78;2096318;28;20205;-68
2022/06/28 04:08:19;;;;;;;9.43;7.70;;;;;;;22.12;100.00;101579.28;2097076;28;20201;-67
2022/06/28 04:09:19;;;;;;;10.17;7.70;;;;;;;22.16;100.00;101567.78;2094783;28;20178;-67
2022/06/28 04:10:20;;;;;;;10.47;7.80;;;;;;;22.22;100.00;101575.03;2103145;28;20183;-68
2022/06/28 04:11:20;;;;;;;8.90;7.23;;;;;;;22.29;100.00;101571.03;2088826;28;20175;-67
2022/06/28 04:12:21;;;;;;;10.57;7.40;;;;;;;22.31;100.00;101568.53;2088799;28;20199;-68
2022/06/28 04:13:21;;;;;;;10.67;6.73;;;;;;;22.15;100.00;101540.81;2096249;28;20198;-67
2022/06/28 04:14:22;;;;;;;9.23;6.90;;;;;;;22.18;100.00;101551.91;2096183;28;20220;-67
2022/06/28 04:15:22;;;;;;;7.67;6.87;;;;;;;22.17;100.00;101558.81;2096955;28;20217;-68
2022/06/28 04:16:23;;;;;;;10.07;6.57;;;;;;;22.26;100.00;101572.78;2094286;28;20641;-67
2022/06/28 04:17:24;;;;;;;8.17;6.70;;;;;;;22.27;100.00;101562.28;2089601;28;20184;-67
2022/06/28 04:18:24;;;;;;;7.37;6.63;;;;;;;22.21;100.00;101576.31;2096612;28;20233;-67
2022/06/28 04:19:25;;;;;;;7.97;6.97;;;;;;;21.47;100.00;101460.41;2096687;28;20182;-67
2022/06/28 04:20:25;;;;;;;6.83;6.17;;;;;;;22.05;100.00;101545.00;2095953;28;20195;-67
2022/06/28 04:21:26;;;;;;;10.10;6.70;;;;;;;21.80;100.00;101504.06;2093928;28;20285;-67
2022/06/28 04:22:26;;;;;;;9.13;6.37;;;;;;;22.22;100.00;101569.38;2094097;28;20587;-67
2022/06/28 04:23:27;;;;;;;7.03;6.20;;;;;;;22.25;100.00;101562.78;2095708;28;20266;-67
2022/06/28 04:24:28;;;;;;;9.07;6.53;;;;;;;22.28;100.00;101569.50;2097240;28;20577;-67
2022/06/28 04:25:28;;;;;;;9.50;6.60;;;;;;;22.31;100.00;101568.53;2098023;28;20181;-67
2022/06/28 04:26:29;;;;;;;11.77;6.63;;;;;;;22.35;100.00;101571.91;2095744;28;20190;-67
2022/06/28 04:27:29;;;;;;;7.23;6.53;;;;;;;22.48;100.00;101576.00;2099742;28;20212;-67
2022/06/28 04:28:30;;;;;;;8.83;6.30;;;;;;;22.51;100.00;101566.53;2099219;28;20201;-68
2022/06/28 04:29:30;;;;;;;11.23;6.60;;;;;;;22.55;100.00;101564.28;2097758;28;20222;-67
2022/06/28 04:30:31;;;;;;;9.63;6.53;;;;;;;22.68;100.00;101573.19;2094035;28;20238;-68
2022/06/28 04:31:32;;;;;;;6.83;6.17;;;;;;;22.24;100.00;101523.72;2100245;28;20194;-67
2022/06/28 04:32:33;;;;;;;9.67;6.40;;;;;;;22.67;100.00;101568.81;2098391;28;20195;-67
2022/06/28 04:33:34;;;;;;;18.03;8.07;;;;;;;22.70;100.00;101562.19;2097308;28;20942;-67
2022/06/28 04:34:35;;;;;;;9.87;6.53;;;;;;;22.79;100.00;101578.22;2098977;28;20328;-68
2022/06/28 04:35:35;;;;;;;8.23;6.40;;;;;;;22.20;100.00;101490.06;2100309;28;20578;-67
2022/06/28 04:36:36;;;;;;;7.67;6.07;;;;;;;22.63;100.00;101559.00;2100287;28;20269;-68
2022/06/28 04:37:36;;;;;;;8.60;6.20;;;;;;;22.63;100.00;101556.94;2096131;28;20199;-67
2022/06/28 04:38:37;;;;;;;8.30;6.23;;;;;;;22.74;100.00;101584.56;2096989;28;20207;-67
2022/06/28 04:39:37;;;;;;;7.30;6.60;;;;;;;22.42;100.00;101546.09;2095512;28;20219;-67
2022/06/28 04:40:38;;;;;;;7.30;6.40;;;;;;;22.39;100.00;101552.69;2094785;28;20697;-67
2022/06/28 04:41:38;;;;;;;7.70;6.53;;;;;;;22.39;100.00;101533.72;2093202;28;20251;-67
2022/06/28 04:42:39;;;;;;;8.33;6.63;;;;;;;22.52;100.00;101541.88;2095510;28;20270;-67
2022/06/28 04:43:39;;;;;;;9.23;6.53;;;;;;;22.54;100.00;101547.81;2100581;28;20194;-67
2022/06/28 04:44:41;;;;;;;7.33;6.33;;;;;;;23.01;100.00;101606.75;2090979;28;20243;-67
2022/06/28 04:45:42;;;;;;;7.77;6.93;;;;;;;22.78;100.00;101556.88;2087827;28;20580;-67